createdAt,value
2018-06-09T00:00:36.543Z,94.64
2018-06-09T00:01:36.489Z,93.77
2018-06-09T00:02:36.406Z,93.77
2018-06-09T00:03:36.281Z,94.73
2018-06-09T00:04:36.197Z,94.25
2018-06-09T00:05:36.113Z,93.77
2018-06-09T00:06:36.058Z,93.09
2018-06-09T00:07:35.934Z,92.90
2018-06-09T00:08:35.848Z,93.67
2018-06-09T00:09:35.765Z,92.80
2018-06-09T00:10:35.677Z,93.29
2018-06-09T00:11:35.619Z,93.48
2018-06-09T00:12:35.504Z,93.48
2018-06-09T00:13:35.416Z,93.96
2018-06-09T00:14:35.330Z,93.67
2018-06-09T00:15:35.244Z,93.96
2018-06-09T00:16:35.190Z,93.87
2018-06-09T00:17:35.071Z,93.09
2018-06-09T00:18:34.983Z,93.48
2018-06-09T00:19:34.928Z,93.09
2018-06-09T00:20:34.811Z,93.67
2018-06-09T00:21:34.852Z,93.96
2018-06-09T00:22:34.638Z,94.30
2018-06-09T00:23:34.550Z,94.54
2018-06-09T00:24:34.465Z,94.06
2018-06-09T00:25:34.383Z,93.87
2018-06-09T00:26:34.319Z,94.06
2018-06-09T00:27:34.204Z,94.06
2018-06-09T00:28:34.117Z,94.15
2018-06-09T00:29:34.031Z,94.20
2018-06-09T00:30:33.943Z,93.96
2018-06-09T00:31:33.886Z,94.44
2018-06-09T00:32:33.771Z,93.96
2018-06-09T00:33:33.685Z,94.25
2018-06-09T00:34:33.611Z,93.96
2018-06-09T00:35:33.621Z,94.59
2018-06-09T00:36:33.454Z,93.67
2018-06-09T00:37:33.334Z,93.38
2018-06-09T00:38:33.252Z,93.67
2018-06-09T00:39:33.163Z,93.67
2018-06-09T00:40:33.077Z,94.64
2018-06-09T00:41:32.996Z,95.17
2018-06-09T00:42:33.036Z,95.36
2018-06-09T00:43:32.816Z,94.54
2018-06-09T00:44:32.729Z,94.97
2018-06-09T00:45:32.646Z,95.17
2018-06-09T00:46:32.561Z,95.07
2018-06-09T00:47:32.501Z,96.12
2018-06-09T00:48:32.384Z,95.84
2018-06-09T00:49:32.394Z,96.03
2018-06-09T00:50:32.210Z,96.32
2018-06-09T00:51:32.125Z,95.65
2018-06-09T00:52:32.070Z,95.94
2018-06-09T00:53:31.950Z,96.37
2018-06-09T00:54:31.863Z,96.89
2018-06-09T00:55:31.778Z,96.70
2018-06-09T00:56:31.810Z,96.80
2018-06-09T00:57:31.636Z,95.84
2018-06-09T00:58:31.519Z,96.80
2018-06-09T00:59:31.430Z,96.89
2018-06-09T01:00:31.345Z,96.75
2018-06-09T01:01:31.260Z,96.85
2018-06-09T01:02:31.201Z,96.56
2018-06-09T01:03:31.181Z,96.85
2018-06-09T01:04:30.996Z,96.80
2018-06-09T01:05:30.912Z,96.80
2018-06-09T01:06:30.821Z,97.04
2018-06-09T01:07:30.765Z,96.75
2018-06-09T01:08:30.648Z,96.89
2018-06-09T01:09:30.563Z,96.85
2018-06-09T01:10:30.575Z,96.75
2018-06-09T01:11:30.389Z,96.85
2018-06-09T01:12:30.332Z,97.09
2018-06-09T01:13:30.212Z,96.12
2018-06-09T01:14:30.130Z,96.80
2018-06-09T01:15:30.040Z,96.89
2018-06-09T01:16:29.955Z,97.19
2018-06-09T01:17:29.972Z,96.94
2018-06-09T01:18:29.783Z,96.56
2018-06-09T01:19:29.693Z,96.51
2018-06-09T01:20:29.608Z,97.14
2018-06-09T01:21:29.523Z,96.99
2018-06-09T01:22:29.464Z,96.94
2018-06-09T01:23:29.346Z,96.99
2018-06-09T01:24:29.354Z,96.56
2018-06-09T01:25:29.172Z,96.94
2018-06-09T01:26:29.086Z,96.94
2018-06-09T01:27:29.031Z,96.85
2018-06-09T01:28:28.913Z,97.42
2018-06-09T01:29:28.828Z,97.52
2018-06-09T01:30:28.739Z,97.42
2018-06-09T01:31:28.650Z,97.91
2018-06-09T01:32:28.597Z,98.58
2018-06-09T01:33:28.475Z,98.49
2018-06-09T01:34:28.389Z,98.77
2018-06-09T01:35:28.302Z,98.58
2018-06-09T01:36:28.217Z,98.19
2018-06-09T01:37:28.159Z,98.19
2018-06-09T01:38:28.041Z,98.29
2018-06-09T01:39:27.954Z,98.39
2018-06-09T01:40:27.868Z,98.58
2018-06-09T01:41:27.783Z,98.58
2018-06-09T01:42:27.724Z,98.19
2018-06-09T01:43:27.605Z,98.29
2018-06-09T01:44:27.520Z,98.39
2018-06-09T01:45:27.435Z,98.87
2018-06-09T01:46:27.346Z,98.24
2018-06-09T01:47:27.288Z,98.77
2018-06-09T01:48:27.173Z,98.68
2018-06-09T01:49:27.088Z,98.53
2018-06-09T01:50:26.998Z,98.29
2018-06-09T01:51:26.910Z,98.29
2018-06-09T01:52:26.853Z,98.19
2018-06-09T01:53:26.736Z,98.58
2018-06-09T01:54:26.653Z,98.39
2018-06-09T01:55:26.563Z,98.58
2018-06-09T01:56:26.473Z,98.39
2018-06-09T01:57:26.421Z,98.29
2018-06-09T01:58:26.303Z,98.58
2018-06-09T01:59:26.216Z,97.52
2018-06-09T02:00:26.126Z,97.71
2018-06-09T02:01:26.040Z,98.19
2018-06-09T02:02:25.983Z,97.24
2018-06-09T02:03:25.868Z,97.62
2018-06-09T02:04:25.779Z,97.62
2018-06-09T02:05:25.691Z,97.62
2018-06-09T02:06:25.603Z,97.71
2018-06-09T02:07:25.550Z,96.94
2018-06-09T02:08:25.432Z,97.33
2018-06-09T02:09:25.343Z,96.94
2018-06-09T02:10:25.255Z,97.62
2018-06-09T02:11:25.182Z,97.14
2018-06-09T02:12:25.086Z,96.75
2018-06-09T02:13:25.026Z,96.99
2018-06-09T02:14:24.908Z,96.56
2018-06-09T02:15:24.822Z,96.70
2018-06-09T02:16:24.733Z,96.85
2018-06-09T02:17:24.649Z,97.19
2018-06-09T02:18:24.598Z,96.80
2018-06-09T02:19:24.473Z,96.85
2018-06-09T02:20:24.387Z,96.99
2018-06-09T02:21:24.297Z,97.19
2018-06-09T02:22:24.216Z,96.75
2018-06-09T02:23:24.158Z,97.52
2018-06-09T02:24:24.037Z,97.42
2018-06-09T02:25:23.954Z,97.81
2018-06-09T02:26:23.868Z,98.05
2018-06-09T02:27:23.780Z,97.14
2018-06-09T02:28:23.720Z,96.89
2018-06-09T02:29:23.602Z,96.89
2018-06-09T02:30:23.520Z,97.76
2018-06-09T02:31:23.428Z,97.19
2018-06-09T02:32:23.344Z,97.67
2018-06-09T02:33:23.287Z,97.38
2018-06-09T02:34:23.171Z,97.52
2018-06-09T02:35:23.086Z,97.52
2018-06-09T02:36:22.995Z,98.39
2018-06-09T02:37:22.911Z,98.19
2018-06-09T02:38:22.856Z,98.68
2018-06-09T02:39:22.733Z,99.26
2018-06-09T02:40:22.649Z,98.96
2018-06-09T02:41:22.560Z,99.16
2018-06-09T02:42:22.476Z,99.44
2018-06-09T02:43:22.420Z,98.87
2018-06-09T02:44:22.309Z,99.99
2018-06-09T02:45:22.216Z,99.99
2018-06-09T02:46:22.127Z,99.73
2018-06-09T02:47:22.039Z,98.87
2018-06-09T02:48:21.984Z,99.83
2018-06-09T02:49:21.865Z,99.54
2018-06-09T02:50:21.777Z,99.64
2018-06-09T02:51:21.690Z,99.44
2018-06-09T02:52:21.604Z,99.40
2018-06-09T02:53:21.551Z,99.49
2018-06-09T02:54:21.528Z,99.78
2018-06-09T02:55:21.344Z,99.99
2018-06-09T02:56:21.254Z,99.78
2018-06-09T02:57:21.168Z,99.99
2018-06-09T02:58:21.112Z,99.98
2018-06-09T02:59:20.993Z,99.99
2018-06-09T03:00:20.907Z,99.99
2018-06-09T03:01:20.824Z,99.99
2018-06-09T03:02:20.734Z,99.99
2018-06-09T03:03:20.678Z,99.99
2018-06-09T03:04:20.563Z,99.99
2018-06-09T03:05:20.475Z,99.99
2018-06-09T03:06:20.389Z,99.99
2018-06-09T03:07:20.300Z,99.99
2018-06-09T03:08:20.336Z,99.99
2018-06-09T03:09:20.125Z,99.99
2018-06-09T03:10:20.040Z,99.99
2018-06-09T03:11:19.952Z,99.99
2018-06-09T03:12:19.863Z,99.99
2018-06-09T03:13:19.807Z,99.99
2018-06-09T03:14:19.690Z,99.99
2018-06-09T03:15:19.695Z,99.99
2018-06-09T03:16:19.517Z,99.99
2018-06-09T03:17:19.430Z,99.99
2018-06-09T03:18:19.372Z,99.99
2018-06-09T03:19:19.259Z,99.99
2018-06-09T03:20:19.167Z,99.99
2018-06-09T03:21:19.080Z,99.99
2018-06-09T03:22:19.085Z,99.99
2018-06-09T03:23:18.935Z,99.99
2018-06-09T03:24:18.817Z,99.99
2018-06-09T03:25:18.729Z,99.99
2018-06-09T03:26:18.643Z,99.99
2018-06-09T03:27:18.569Z,99.99
2018-06-09T03:28:18.495Z,99.99
2018-06-09T03:29:18.474Z,99.99
2018-06-09T03:30:18.298Z,99.99
2018-06-09T03:31:18.205Z,99.99
2018-06-09T03:32:18.120Z,99.99
2018-06-09T03:33:18.062Z,99.99
2018-06-09T03:34:17.948Z,99.99
2018-06-09T03:35:17.858Z,99.99
2018-06-09T03:36:17.769Z,99.99
2018-06-09T03:37:17.686Z,99.99
2018-06-09T03:38:17.628Z,99.99
2018-06-09T03:39:17.507Z,99.99
2018-06-09T03:40:17.420Z,99.99
2018-06-09T03:41:17.330Z,99.99
2018-06-09T03:42:17.244Z,99.99
2018-06-09T03:43:17.229Z,99.99
2018-06-09T03:44:17.098Z,99.99
2018-06-09T03:45:16.981Z,99.99
2018-06-09T03:46:16.893Z,99.99
2018-06-09T03:47:16.804Z,99.99
2018-06-09T03:48:16.719Z,99.99
2018-06-09T03:49:16.660Z,99.99
2018-06-09T03:50:16.542Z,99.99
2018-06-09T03:51:16.551Z,99.99
2018-06-09T03:52:16.368Z,99.99
2018-06-09T03:53:16.284Z,99.99
2018-06-09T03:54:16.224Z,99.99
2018-06-09T03:55:16.102Z,99.99
2018-06-09T03:56:16.020Z,99.99
2018-06-09T03:57:15.930Z,99.99
2018-06-09T03:58:15.946Z,99.99
2018-06-09T03:59:15.784Z,99.99
2018-06-09T04:00:15.665Z,99.99
2018-06-09T04:01:15.576Z,99.99
2018-06-09T04:02:15.491Z,99.99
2018-06-09T04:03:15.402Z,99.99
2018-06-09T04:04:15.345Z,99.99
2018-06-09T04:05:15.321Z,99.99
2018-06-09T04:06:15.141Z,99.99
2018-06-09T04:07:15.052Z,99.99
2018-06-09T04:08:14.965Z,99.99
2018-06-09T04:09:14.911Z,99.99
2018-06-09T04:10:14.789Z,99.99
2018-06-09T04:11:14.699Z,99.99
2018-06-09T04:12:14.708Z,99.99
2018-06-09T04:13:14.525Z,99.99
2018-06-09T04:14:14.473Z,99.99
2018-06-09T04:15:14.350Z,99.99
2018-06-09T04:16:14.261Z,99.99
2018-06-09T04:17:14.175Z,99.99
2018-06-09T04:18:14.093Z,99.99
2018-06-09T04:19:14.122Z,99.99
2018-06-09T04:20:13.910Z,99.99
2018-06-09T04:21:13.840Z,99.99
2018-06-09T04:22:13.739Z,99.99
2018-06-09T04:23:13.653Z,99.99
2018-06-09T04:24:13.593Z,99.99
2018-06-09T04:25:13.473Z,99.99
2018-06-09T04:26:13.482Z,99.99
2018-06-09T04:27:13.299Z,99.99
2018-06-09T04:28:13.212Z,99.99
2018-06-09T04:29:13.160Z,99.99
2018-06-09T04:30:13.038Z,99.99
2018-06-09T04:31:12.950Z,99.99
2018-06-09T04:32:12.882Z,99.99
2018-06-09T04:33:12.775Z,99.99
2018-06-09T04:34:12.716Z,99.99
2018-06-09T04:35:12.600Z,99.99
2018-06-09T04:36:12.514Z,99.99
2018-06-09T04:37:12.427Z,99.99
2018-06-09T04:38:12.340Z,99.99
2018-06-09T04:39:12.283Z,99.99
2018-06-09T04:40:12.164Z,99.99
2018-06-09T04:41:12.081Z,99.99
2018-06-09T04:42:11.990Z,99.99
2018-06-09T04:43:11.904Z,99.99
2018-06-09T04:44:11.845Z,99.99
2018-06-09T04:45:11.728Z,99.99
2018-06-09T04:46:11.642Z,99.99
2018-06-09T04:47:11.553Z,99.99
2018-06-09T04:48:11.469Z,99.99
2018-06-09T04:49:11.414Z,99.99
2018-06-09T04:50:11.295Z,99.99
2018-06-09T04:51:11.206Z,99.99
2018-06-09T04:52:11.158Z,99.99
2018-06-09T04:53:11.041Z,99.99
2018-06-09T04:54:10.981Z,99.99
2018-06-09T04:55:10.861Z,99.99
2018-06-09T04:56:10.778Z,99.99
2018-06-09T04:57:10.689Z,99.99
2018-06-09T04:58:10.601Z,99.99
2018-06-09T04:59:10.553Z,99.99
2018-06-09T05:00:10.426Z,99.99
2018-06-09T05:01:10.343Z,99.99
2018-06-09T05:02:10.256Z,99.99
2018-06-09T05:03:10.171Z,99.99
2018-06-09T05:04:10.115Z,99.99
2018-06-09T05:05:10.002Z,99.99
2018-06-09T05:06:09.912Z,99.99
2018-06-09T05:07:09.866Z,99.99
2018-06-09T05:08:09.741Z,99.99
2018-06-09T05:09:09.688Z,99.49
2018-06-09T05:10:09.565Z,99.30
2018-06-09T05:11:09.481Z,98.92
2018-06-09T05:12:09.394Z,99.99
2018-06-09T05:13:09.311Z,99.99
2018-06-09T05:14:09.229Z,99.99
2018-06-09T05:15:09.168Z,99.99
2018-06-09T05:16:09.051Z,99.99
2018-06-09T05:17:08.965Z,99.59
2018-06-09T05:18:08.880Z,99.99
2018-06-09T05:19:08.795Z,99.06
2018-06-09T05:20:08.738Z,99.93
2018-06-09T05:21:08.622Z,99.99
2018-06-09T05:22:08.537Z,99.26
2018-06-09T05:23:08.450Z,99.16
2018-06-09T05:24:08.368Z,98.39
2018-06-09T05:25:08.324Z,98.68
2018-06-09T05:26:08.196Z,98.63
2018-06-09T05:27:08.109Z,98.44
2018-06-09T05:28:08.080Z,98.44
2018-06-09T05:29:07.942Z,99.79
2018-06-09T05:30:07.882Z,98.58
2018-06-09T05:31:07.767Z,98.10
2018-06-09T05:32:07.681Z,97.04
2018-06-09T05:33:07.599Z,97.19
2018-06-09T05:34:07.513Z,96.22
2018-06-09T05:35:07.461Z,95.54
2018-06-09T05:36:07.341Z,95.45
2018-06-09T05:37:07.255Z,95.88
2018-06-09T05:38:07.172Z,93.47
2018-06-09T05:39:07.088Z,94.34
2018-06-09T05:40:07.035Z,93.76
2018-06-09T05:41:06.916Z,93.28
2018-06-09T05:42:06.831Z,93.37
2018-06-09T05:43:06.745Z,94.15
2018-06-09T05:44:06.659Z,93.32
2018-06-09T05:45:06.606Z,93.08
2018-06-09T05:46:06.494Z,93.13
2018-06-09T05:47:06.406Z,92.60
2018-06-09T05:48:06.324Z,92.50
2018-06-09T05:49:06.346Z,91.68
2018-06-09T05:50:06.186Z,93.71
2018-06-09T05:51:06.068Z,93.90
2018-06-09T05:52:05.983Z,91.78
2018-06-09T05:53:05.901Z,92.74
2018-06-09T05:54:05.817Z,93.52
2018-06-09T05:55:05.763Z,93.62
2018-06-09T05:56:05.746Z,93.32
2018-06-09T05:57:05.566Z,91.59
2018-06-09T05:58:05.480Z,92.65
2018-06-09T05:59:05.395Z,93.04
2018-06-09T06:00:05.348Z,93.13
2018-06-09T06:01:05.224Z,93.13
2018-06-09T06:02:05.148Z,91.49
2018-06-09T06:03:05.156Z,94.00
2018-06-09T06:04:04.977Z,92.02
2018-06-09T06:05:04.924Z,91.83
2018-06-09T06:06:04.808Z,92.60
2018-06-09T06:07:04.724Z,94.92
2018-06-09T06:08:04.639Z,90.77
2018-06-09T06:09:04.554Z,89.79
2018-06-09T06:10:04.597Z,91.63
2018-06-09T06:11:04.388Z,92.74
2018-06-09T06:12:04.302Z,91.87
2018-06-09T06:13:04.223Z,89.84
2018-06-09T06:14:04.135Z,90.66
2018-06-09T06:15:04.081Z,88.29
2018-06-09T06:16:03.967Z,89.36
2018-06-09T06:17:03.977Z,90.13
2018-06-09T06:18:03.799Z,89.65
2018-06-09T06:19:03.718Z,90.81
2018-06-09T06:20:03.665Z,89.01
2018-06-09T06:21:03.548Z,89.79
2018-06-09T06:22:03.466Z,89.21
2018-06-09T06:23:03.383Z,88.34
2018-06-09T06:24:03.296Z,87.85
2018-06-09T06:25:03.247Z,87.37
2018-06-09T06:26:03.131Z,87.08
2018-06-09T06:27:03.047Z,86.79
2018-06-09T06:28:02.963Z,86.79
2018-06-09T06:29:02.883Z,86.74
2018-06-09T06:30:02.832Z,86.45
2018-06-09T06:31:02.712Z,85.58
2018-06-09T06:32:02.654Z,85.68
2018-06-09T06:33:02.557Z,86.06
2018-06-09T06:34:02.466Z,85.29
2018-06-09T06:35:02.413Z,85.52
2018-06-09T06:36:02.303Z,85.04
2018-06-09T06:37:02.216Z,85.86
2018-06-09T06:38:02.134Z,83.86
2018-06-09T06:39:02.049Z,82.51
2018-06-09T06:40:02.015Z,82.07
2018-06-09T06:41:01.885Z,80.46
2018-06-09T06:42:01.803Z,79.88
2018-06-09T06:43:01.719Z,79.24
2018-06-09T06:44:01.641Z,78.46
2018-06-09T06:45:01.598Z,78.02
2018-06-09T06:46:01.504Z,77.37
2018-06-09T06:47:01.400Z,77.86
2018-06-09T06:48:01.311Z,75.85
2018-06-09T06:49:01.232Z,75.95
2018-06-09T06:50:01.151Z,75.08
2018-06-09T06:51:01.099Z,75.08
2018-06-09T06:52:00.986Z,74.82
2018-06-09T06:53:00.909Z,73.56
2018-06-09T06:54:00.828Z,74.24
2018-06-09T06:55:00.749Z,74.15
2018-06-09T06:56:00.699Z,73.85
2018-06-09T06:57:00.590Z,73.85
2018-06-09T06:58:00.508Z,74.24
2018-06-09T06:59:00.429Z,74.08
2018-06-09T07:00:00.352Z,73.89
2018-06-09T07:01:00.301Z,73.34
2018-06-09T07:02:00.246Z,74.41
2018-06-09T07:03:00.122Z,75.09
2018-06-09T07:04:00.035Z,73.05
2018-06-09T07:05:00.054Z,72.17
2018-06-09T07:05:59.911Z,70.65
2018-06-09T07:06:59.800Z,70.95
2018-06-09T07:07:59.752Z,71.14
2018-06-09T07:08:59.646Z,69.71
2018-06-09T07:09:59.572Z,69.17
2018-06-09T07:10:59.521Z,68.97
2018-06-09T07:11:59.508Z,69.36
2018-06-09T07:12:59.337Z,68.77
2018-06-09T07:13:59.259Z,68.77
2018-06-09T07:14:59.183Z,69.39
2018-06-09T07:15:59.137Z,68.58
2018-06-09T07:16:59.031Z,67.50
2018-06-09T07:17:58.953Z,66.53
2018-06-09T07:18:58.969Z,68.97
2018-06-09T07:19:58.817Z,68.74
2018-06-09T07:20:58.752Z,69.46
2018-06-09T07:21:58.651Z,69.03
2018-06-09T07:22:58.577Z,70.46
2018-06-09T07:23:58.497Z,68.93
2018-06-09T07:24:58.420Z,70.56
2018-06-09T07:25:58.475Z,68.12
2018-06-09T07:26:58.269Z,68.96
2018-06-09T07:27:58.192Z,70.10
2018-06-09T07:28:58.119Z,70.13
2018-06-09T07:29:58.047Z,70.81
2018-06-09T07:30:57.998Z,73.89
2018-06-09T07:31:57.892Z,72.63
2018-06-09T07:32:57.921Z,73.27
2018-06-09T07:33:57.740Z,74.01
2018-06-09T07:34:57.664Z,76.69
2018-06-09T07:35:57.619Z,76.37
2018-06-09T07:36:57.513Z,78.07
2018-06-09T07:37:57.435Z,77.04
2018-06-09T07:38:57.360Z,78.21
2018-06-09T07:39:57.378Z,78.79
2018-06-09T07:40:57.239Z,76.79
2018-06-09T07:41:57.132Z,75.08
2018-06-09T07:42:57.055Z,76.87
2018-06-09T07:43:56.984Z,74.44
2018-06-09T07:44:56.905Z,74.50
2018-06-09T07:45:56.857Z,75.27
2018-06-09T07:46:56.855Z,75.60
2018-06-09T07:47:56.689Z,73.18
2018-06-09T07:48:56.596Z,72.04
2018-06-09T07:49:56.520Z,69.10
2018-06-09T07:50:56.475Z,67.96
2018-06-09T07:51:56.369Z,68.35
2018-06-09T07:52:56.293Z,68.51
2018-06-09T07:53:56.312Z,68.93
2018-06-09T07:54:56.138Z,72.27
2018-06-09T07:55:56.094Z,70.78
2018-06-09T07:56:55.987Z,71.98
2018-06-09T07:57:55.910Z,71.33
2018-06-09T07:58:55.835Z,72.34
2018-06-09T07:59:55.755Z,71.01
2018-06-09T08:00:55.804Z,70.53
2018-06-09T08:01:55.602Z,70.56
2018-06-09T08:02:55.534Z,69.29
2018-06-09T08:03:55.453Z,69.68
2018-06-09T08:04:55.374Z,69.13
2018-06-09T08:05:55.331Z,68.06
2018-06-09T08:06:55.264Z,70.53
2018-06-09T08:07:55.244Z,71.70
2018-06-09T08:08:55.073Z,69.75
2018-06-09T08:09:54.994Z,69.10
2018-06-09T08:10:54.948Z,70.53
2018-06-09T08:11:54.844Z,72.34
2018-06-09T08:12:54.764Z,73.18
2018-06-09T08:13:54.721Z,72.50
2018-06-09T08:14:54.712Z,72.54
2018-06-09T08:15:54.541Z,70.40
2018-06-09T08:16:54.495Z,71.56
2018-06-09T08:17:54.384Z,71.82
2018-06-09T08:18:54.310Z,72.41
2018-06-09T08:19:54.233Z,72.56
2018-06-09T08:20:54.158Z,73.63
2018-06-09T08:21:54.207Z,74.28
2018-06-09T08:22:54.002Z,75.21
2018-06-09T08:23:53.930Z,75.60
2018-06-09T08:24:53.851Z,76.67
2018-06-09T08:25:53.777Z,76.28
2018-06-09T08:26:53.724Z,76.05
2018-06-09T08:27:53.617Z,75.76
2018-06-09T08:28:53.639Z,76.83
2018-06-09T08:29:53.466Z,76.83
2018-06-09T08:30:53.389Z,77.41
2018-06-09T08:31:53.345Z,78.13
2018-06-09T08:32:53.247Z,76.92
2018-06-09T08:33:53.155Z,75.80
2018-06-09T08:34:53.078Z,74.79
2018-06-09T08:35:54.373Z,75.67
2018-06-09T08:36:52.952Z,75.85
2018-06-09T08:37:52.845Z,77.15
2018-06-09T08:38:52.767Z,77.84
2018-06-09T08:39:52.692Z,76.28
2018-06-09T08:40:52.611Z,73.89
2018-06-09T08:41:52.567Z,74.63
2018-06-09T08:42:52.455Z,75.02
2018-06-09T08:43:52.379Z,76.05
2018-06-09T08:44:52.302Z,74.79
2018-06-09T08:45:52.223Z,74.73
2018-06-09T08:46:52.180Z,74.48
2018-06-09T08:47:52.065Z,72.66
2018-06-09T08:48:52.109Z,72.89
2018-06-09T08:49:51.910Z,72.50
2018-06-09T08:50:51.829Z,72.76
2018-06-09T08:51:51.783Z,72.86
2018-06-09T08:52:51.678Z,70.81
2018-06-09T08:53:51.597Z,72.04
2018-06-09T08:54:51.519Z,72.14
2018-06-09T08:55:51.557Z,73.08
2018-06-09T08:56:51.422Z,73.08
2018-06-09T08:57:51.287Z,75.02
2018-06-09T08:58:51.220Z,73.85
2018-06-09T08:59:51.128Z,74.44
2018-06-09T09:00:51.053Z,74.50
2018-06-09T09:01:51.006Z,73.72
2018-06-09T09:02:50.891Z,76.11
2018-06-09T09:03:50.815Z,76.60
2018-06-09T09:04:50.736Z,78.15
2018-06-09T09:05:50.662Z,78.83
2018-06-09T09:06:50.608Z,79.96
2018-06-09T09:07:50.503Z,79.32
2018-06-09T09:08:50.422Z,76.05
2018-06-09T09:09:50.344Z,76.09
2018-06-09T09:10:50.264Z,74.86
2018-06-09T09:11:50.215Z,74.15
2018-06-09T09:12:50.110Z,74.92
2018-06-09T09:13:50.052Z,75.35
2018-06-09T09:14:49.950Z,74.88
2018-06-09T09:15:49.873Z,74.30
2018-06-09T09:16:49.822Z,74.11
2018-06-09T09:17:49.715Z,74.27
2018-06-09T09:18:49.635Z,74.17
2018-06-09T09:19:49.556Z,74.37
2018-06-09T09:20:49.482Z,74.75
2018-06-09T09:21:49.433Z,75.92
2018-06-09T09:22:49.413Z,75.92
2018-06-09T09:23:49.240Z,75.57
2018-06-09T09:24:49.163Z,74.01
2018-06-09T09:25:49.095Z,73.50
2018-06-09T09:26:49.038Z,72.08
2018-06-09T09:27:48.927Z,71.43
2018-06-09T09:28:48.848Z,69.42
2018-06-09T09:29:48.773Z,68.71
2018-06-09T09:30:48.692Z,66.14
2018-06-09T09:31:48.645Z,67.86
2018-06-09T09:32:48.531Z,68.71
2018-06-09T09:33:48.462Z,69.55
2018-06-09T09:34:48.376Z,70.42
2018-06-09T09:35:48.297Z,71.26
2018-06-09T09:36:48.267Z,72.11
2018-06-09T09:37:48.140Z,74.44
2018-06-09T09:38:48.060Z,73.95
2018-06-09T09:39:47.984Z,72.39
2018-06-09T09:40:47.905Z,73.43
2018-06-09T09:41:47.858Z,75.34
2018-06-09T09:42:47.750Z,76.89
2018-06-09T09:43:47.669Z,78.02
2018-06-09T09:44:47.703Z,76.95
2018-06-09T09:45:47.512Z,74.91
2018-06-09T09:46:47.440Z,77.04
2018-06-09T09:47:47.386Z,78.17
2018-06-09T09:48:47.279Z,81.37
2018-06-09T09:49:47.199Z,81.33
2018-06-09T09:50:47.118Z,80.85
2018-06-09T09:51:47.068Z,79.88
2018-06-09T09:52:46.958Z,79.78
2018-06-09T09:53:46.883Z,82.01
2018-06-09T09:54:46.803Z,81.77
2018-06-09T09:55:46.722Z,81.77
2018-06-09T09:56:46.658Z,81.97
2018-06-09T09:57:46.596Z,82.07
2018-06-09T09:58:46.480Z,81.97
2018-06-09T09:59:46.403Z,81.68
2018-06-09T10:00:46.324Z,82.26
2018-06-09T10:01:46.246Z,84.58
2018-06-09T10:02:46.198Z,85.80
2018-06-09T10:03:46.082Z,99.99
2018-06-09T10:04:46.021Z,98.73
2018-06-09T10:05:45.924Z,99.99
2018-06-09T10:06:45.846Z,0.00
2018-06-09T10:07:45.790Z,0.00
2018-06-09T10:08:45.680Z,0.00
2018-06-09T10:09:45.601Z,0.00
2018-06-09T10:10:45.517Z,0.00
2018-06-09T10:11:45.435Z,0.00
2018-06-09T10:12:45.387Z,0.00
2018-06-09T10:13:45.269Z,0.00
2018-06-09T10:14:45.186Z,0.00
2018-06-09T10:15:45.103Z,0.00
2018-06-09T10:16:45.022Z,0.00
2018-06-09T10:17:44.965Z,0.00
2018-06-09T10:18:44.848Z,0.00
2018-06-09T12:52:12.304Z,77.65
2018-06-09T12:53:10.148Z,79.03
2018-06-09T12:54:10.277Z,78.27
2018-06-09T12:55:09.972Z,77.59
2018-06-09T12:56:09.883Z,77.11
2018-06-09T12:57:09.796Z,75.57
2018-06-09T12:58:09.712Z,75.67
2018-06-09T12:59:09.653Z,74.94
2018-06-09T13:00:09.535Z,75.04
2018-06-09T13:01:09.454Z,76.29
2018-06-09T13:02:09.362Z,75.42
2018-06-09T13:03:09.300Z,76.57
2018-06-09T13:04:09.219Z,76.77
2018-06-09T13:05:09.110Z,75.71
2018-06-09T13:06:09.108Z,78.02
2018-06-09T13:07:08.925Z,79.22
2018-06-09T13:08:08.840Z,79.17
2018-06-09T13:09:08.800Z,81.34
2018-06-09T13:10:08.705Z,81.63
2018-06-09T13:11:08.578Z,81.92
2018-06-09T13:12:08.493Z,81.43
2018-06-09T13:13:08.404Z,81.15
2018-06-09T13:14:08.387Z,80.96
2018-06-09T13:15:08.236Z,80.47
2018-06-09T13:16:08.148Z,80.28
2018-06-09T13:17:08.061Z,80.38
2018-06-09T13:18:07.977Z,79.90
2018-06-09T13:19:07.938Z,79.32
2018-06-09T13:20:07.799Z,79.52
2018-06-09T13:21:07.712Z,78.94
2018-06-09T13:22:07.629Z,77.98
2018-06-09T13:23:07.543Z,78.45
2018-06-09T13:24:07.482Z,77.98
2018-06-09T13:25:07.366Z,77.50
2018-06-09T13:26:07.375Z,77.40
2018-06-09T13:27:07.198Z,76.44
2018-06-09T13:28:07.107Z,76.25
2018-06-09T13:29:07.052Z,75.87
2018-06-09T13:30:06.933Z,74.71
2018-06-09T13:31:06.846Z,74.52
2018-06-09T13:32:06.760Z,73.66
2018-06-09T13:33:06.767Z,73.85
2018-06-09T13:34:06.621Z,72.92
2018-06-09T13:35:06.500Z,72.50
2018-06-09T13:36:06.444Z,73.56
2018-06-09T13:37:06.328Z,74.23
2018-06-09T13:38:06.261Z,72.60
2018-06-09T13:39:06.185Z,73.46
2018-06-09T13:40:06.067Z,72.60
2018-06-09T13:41:05.982Z,71.55
2018-06-09T13:42:05.897Z,71.19
2018-06-09T13:43:05.808Z,71.29
2018-06-09T13:44:05.757Z,70.90
2018-06-09T13:45:05.638Z,71.19
2018-06-09T13:46:05.554Z,70.90
2018-06-09T13:47:05.464Z,70.23
2018-06-09T13:48:05.396Z,69.46
2018-06-09T13:49:05.290Z,69.98
2018-06-09T13:50:05.240Z,69.31
2018-06-09T13:51:05.119Z,69.31
2018-06-09T13:52:05.035Z,69.40
2018-06-09T13:53:04.949Z,70.27
2018-06-09T13:54:04.864Z,70.84
2018-06-09T13:55:04.805Z,69.89
2018-06-09T13:56:04.691Z,70.56
2018-06-09T13:57:04.601Z,70.65
2018-06-09T13:58:04.520Z,70.78
2018-06-09T13:59:04.435Z,69.92
2018-06-09T14:00:04.377Z,70.68
2018-06-09T14:01:04.263Z,71.17
2018-06-09T14:02:04.175Z,72.52
2018-06-09T14:03:04.090Z,73.67
2018-06-09T14:04:04.009Z,75.21
2018-06-09T14:05:03.949Z,78.19
2018-06-09T14:06:03.834Z,78.38
2018-06-09T14:07:03.747Z,78.23
2018-06-09T14:08:03.660Z,78.33
2018-06-09T14:09:03.578Z,78.13
2018-06-09T14:10:03.527Z,78.42
2018-06-09T14:11:03.410Z,79.58
2018-06-09T14:12:03.320Z,78.71
2018-06-09T14:13:03.233Z,79.58
2018-06-09T14:14:03.153Z,80.19
2018-06-09T14:15:03.097Z,82.94
2018-06-09T14:16:02.980Z,85.30
2018-06-09T14:17:02.894Z,85.20
2018-06-09T14:18:02.810Z,84.53
2018-06-09T14:19:02.723Z,84.43
2018-06-09T14:20:02.670Z,83.95
2018-06-09T14:21:02.649Z,84.38
2018-06-09T14:22:02.470Z,85.34
2018-06-09T14:23:02.385Z,83.99
2018-06-09T14:24:02.299Z,84.03
2018-06-09T14:25:02.249Z,85.09
2018-06-09T14:26:02.129Z,88.65
2018-06-09T14:27:02.046Z,87.70
2018-06-09T14:28:01.963Z,87.64
2018-06-09T14:29:01.877Z,88.79
2018-06-09T14:30:01.824Z,87.93
2018-06-09T14:31:01.710Z,87.74
2018-06-09T14:32:01.624Z,90.53
2018-06-09T14:33:01.542Z,91.06
2018-06-09T14:34:01.462Z,90.38
2018-06-09T14:35:01.497Z,92.41
2018-06-09T14:36:01.289Z,91.64
2018-06-09T14:37:01.204Z,91.78
2018-06-09T14:38:01.122Z,96.99
2018-06-09T14:39:01.038Z,99.35
2018-06-09T14:40:00.984Z,99.99
2018-06-09T14:41:00.963Z,99.99
2018-06-09T14:42:00.788Z,99.99
2018-06-09T14:43:00.705Z,99.99
2018-06-09T14:44:01.493Z,99.99
2018-06-09T14:45:00.569Z,99.99
2018-06-09T14:46:00.488Z,99.99
2018-06-09T14:47:00.369Z,99.99
2018-06-09T14:48:00.289Z,99.99
2018-06-09T14:49:00.203Z,99.99
2018-06-09T14:50:00.153Z,99.99
2018-06-09T14:51:00.037Z,99.99
2018-06-09T14:51:59.953Z,99.99
2018-06-09T14:52:59.874Z,99.99
2018-06-09T14:53:59.794Z,99.99
2018-06-09T14:54:59.829Z,99.99
2018-06-09T14:55:59.623Z,99.99
2018-06-09T14:56:59.538Z,99.99
2018-06-09T14:57:59.456Z,99.99
2018-06-09T14:58:59.371Z,99.99
2018-06-09T14:59:59.319Z,99.99
2018-06-09T15:00:59.336Z,99.99
2018-06-09T15:01:59.125Z,99.99
2018-06-09T15:02:59.040Z,99.99
2018-06-09T15:03:58.960Z,99.99
2018-06-09T15:04:58.912Z,99.99
2018-06-09T15:05:58.795Z,99.99
2018-06-09T15:06:58.711Z,99.99
2018-06-09T15:07:58.634Z,99.99
2018-06-09T15:08:58.542Z,99.99
2018-06-09T15:09:58.490Z,99.99
2018-06-09T15:10:58.380Z,99.99
2018-06-09T15:11:58.294Z,99.99
2018-06-09T15:12:58.206Z,99.99
2018-06-09T15:13:58.128Z,99.99
2018-06-09T15:14:58.077Z,99.99
2018-06-09T15:15:57.965Z,99.99
2018-06-09T15:16:57.877Z,99.99
2018-06-09T15:17:57.792Z,99.99
2018-06-09T15:18:57.710Z,99.99
2018-06-09T15:19:57.629Z,99.99
2018-06-09T15:20:57.577Z,99.99
2018-06-09T15:21:57.465Z,99.99
2018-06-09T15:22:57.375Z,99.99
2018-06-09T15:23:57.292Z,99.99
2018-06-09T15:24:57.209Z,99.99